sensor_id;sensor_type;location;lat;lon;timestamp;pressure;altitude;pressure_sealevel;temperature;humidity
29045;BME280;16133;49.486;12.176;2023-02-22T00:02:24;97405.72;;;4.75;100.00
29045;BME280;16133;49.486;12.176;2023-02-22T00:04:52;97404.53;;;4.60;100.00
29045;BME280;16133;49.486;12.176;2023-02-22T00:07:18;97407.59;;;4.46;100.00
29045;BME280;16133;49.486;12.176;2023-02-22T00:09:45;97409.53;;;4.34;100.00
29045;BME280;16133;49.486;12.176;2023-02-22T00:12:11;97400.16;;;4.22;100.00
29045;BME280;16133;49.486;12.176;2023-02-22T00:14:36;97388.97;;;4.10;100.00
29045;BME280;16133;49.486;12.176;2023-02-22T00:17:01;97394.13;;;4.02;100.00
29045;BME280;16133;49.486;12.176;2023-02-22T00:19:27;97386.34;;;3.91;100.00
29045;BME280;16133;49.486;12.176;2023-02-22T00:21:55;97389.00;;;3.81;100.00
29045;BME280;16133;49.486;12.176;2023-02-22T00:24:22;97391.59;;;3.72;100.00
29045;BME280;16133;49.486;12.176;2023-02-22T00:26:52;97381.25;;;3.61;100.00
29045;BME280;16133;49.486;12.176;2023-02-22T00:29:20;97379.47;;;3.52;100.00
29045;BME280;16133;49.486;12.176;2023-02-22T00:31:46;97376.81;;;3.42;100.00
29045;BME280;16133;49.486;12.176;2023-02-22T00:34:13;97383.84;;;3.32;100.00
29045;BME280;16133;49.486;12.176;2023-02-22T00:36:44;97383.56;;;3.25;100.00
29045;BME280;16133;49.486;12.176;2023-02-22T00:39:09;97378.16;;;3.17;100.00
29045;BME280;16133;49.486;12.176;2023-02-22T00:41:35;97379.66;;;3.10;100.00
29045;BME280;16133;49.486;12.176;2023-02-22T00:44:00;97366.41;;;3.02;100.00
29045;BME280;16133;49.486;12.176;2023-02-22T00:46:26;97370.38;;;2.97;100.00
29045;BME280;16133;49.486;12.176;2023-02-22T00:48:51;97370.09;;;2.90;100.00
29045;BME280;16133;49.486;12.176;2023-02-22T00:51:17;97371.59;;;2.83;100.00
29045;BME280;16133;49.486;12.176;2023-02-22T00:53:42;97366.84;;;2.77;100.00
29045;BME280;16133;49.486;12.176;2023-02-22T00:56:07;97366.56;;;2.70;100.00
29045;BME280;16133;49.486;12.176;2023-02-22T00:58:33;97360.03;;;2.65;100.00
29045;BME280;16133;49.486;12.176;2023-02-22T01:00:58;97361.53;;;2.58;100.00
29045;BME280;16133;49.486;12.176;2023-02-22T01:03:23;97362.06;;;2.52;100.00
29045;BME280;16133;49.486;12.176;2023-02-22T01:05:49;97348.34;;;2.38;100.00
29045;BME280;16133;49.486;12.176;2023-02-22T01:08:15;97358.31;;;2.45;100.00
29045;BME280;16133;49.486;12.176;2023-02-22T01:10:41;97354.31;;;2.40;100.00
29045;BME280;16133;49.486;12.176;2023-02-22T01:13:08;97356.47;;;2.35;100.00
29045;BME280;16133;49.486;12.176;2023-02-22T01:15:37;97346.25;;;2.32;100.00
29045;BME280;16133;49.486;12.176;2023-02-22T01:18:04;97351.78;;;2.29;100.00
29045;BME280;16133;49.486;12.176;2023-02-22T01:20:29;97345.81;;;2.27;100.00
29045;BME280;16133;49.486;12.176;2023-02-22T01:22:57;97339.91;;;2.25;100.00
29045;BME280;16133;49.486;12.176;2023-02-22T01:25:25;97336.56;;;2.23;100.00
29045;BME280;16133;49.486;12.176;2023-02-22T01:27:52;97328.03;;;2.21;100.00
29045;BME280;16133;49.486;12.176;2023-02-22T01:30:23;97328.03;;;2.21;100.00
29045;BME280;16133;49.486;12.176;2023-02-22T01:32:49;97323.84;;;2.19;100.00
29045;BME280;16133;49.486;12.176;2023-02-22T01:35:17;97322.22;;;2.18;100.00
29045;BME280;16133;49.486;12.176;2023-02-22T01:37:43;97315.59;;;2.14;100.00
29045;BME280;16133;49.486;12.176;2023-02-22T01:40:13;97318.31;;;2.12;100.00
29045;BME280;16133;49.486;12.176;2023-02-22T01:42:40;97308.13;;;2.09;100.00
29045;BME280;16133;49.486;12.176;2023-02-22T01:45:39;97309.59;;;2.02;100.00
29045;BME280;16133;49.486;12.176;2023-02-22T01:50:57;97305.97;;;1.93;100.00
29045;BME280;16133;49.486;12.176;2023-02-22T01:53:39;97304.19;;;1.94;100.00
29045;BME280;16133;49.486;12.176;2023-02-22T01:56:06;97300.34;;;1.98;100.00
29045;BME280;16133;49.486;12.176;2023-02-22T01:58:34;97287.72;;;2.03;100.00
29045;BME280;16133;49.486;12.176;2023-02-22T02:01:00;97282.91;;;2.08;100.00
29045;BME280;16133;49.486;12.176;2023-02-22T02:03:28;97264.88;;;2.15;100.00
29045;BME280;16133;49.486;12.176;2023-02-22T02:05:58;97246.88;;;2.21;100.00
29045;BME280;16133;49.486;12.176;2023-02-22T02:08:30;97240.16;;;2.28;100.00
29045;BME280;16133;49.486;12.176;2023-02-22T02:11:01;97230.81;;;2.35;100.00
29045;BME280;16133;49.486;12.176;2023-02-22T02:13:27;97209.31;;;2.41;100.00
29045;BME280;16133;49.486;12.176;2023-02-22T02:15:54;97202.72;;;2.47;100.00
29045;BME280;16133;49.486;12.176;2023-02-22T02:18:20;97186.88;;;2.49;100.00
29045;BME280;16133;49.486;12.176;2023-02-22T02:26:37;97178.47;;;2.55;100.00
29045;BME280;16133;49.486;12.176;2023-02-22T02:31:56;97186.47;;;2.44;100.00
29045;BME280;16133;49.486;12.176;2023-02-22T02:34:32;97188.63;;;2.38;100.00
29045;BME280;16133;49.486;12.176;2023-02-22T02:42:07;97204.13;;;2.11;100.00
29045;BME280;16133;49.486;12.176;2023-02-22T02:44:45;97212.63;;;2.04;100.00
29045;BME280;16133;49.486;12.176;2023-02-22T02:47:18;97224.75;;;1.95;100.00
29045;BME280;16133;49.486;12.176;2023-02-22T02:49:54;97224.28;;;1.90;100.00
29045;BME280;16133;49.486;12.176;2023-02-22T02:52:23;97225.13;;;1.90;100.00
29045;BME280;16133;49.486;12.176;2023-02-22T02:54:49;97219.75;;;1.92;100.00
29045;BME280;16133;49.486;12.176;2023-02-22T02:57:15;97216.16;;;1.93;100.00
29045;BME280;16133;49.486;12.176;2023-02-22T02:59:41;97219.34;;;1.97;100.00
29045;BME280;16133;49.486;12.176;2023-02-22T03:13:10;97178.94;;;2.10;100.00
29045;BME280;16133;49.486;12.176;2023-02-22T03:18:34;97177.38;;;2.08;100.00
29045;BME280;16133;49.486;12.176;2023-02-22T03:24:11;97170.66;;;2.05;100.00
29045;BME280;16133;49.486;12.176;2023-02-22T03:26:44;97171.59;;;2.04;100.00
29045;BME280;16133;49.486;12.176;2023-02-22T03:29:13;97178.63;;;2.04;100.00
29045;BME280;16133;49.486;12.176;2023-02-22T03:31:47;97173.66;;;2.01;100.00
29045;BME280;16133;49.486;12.176;2023-02-22T03:34:18;97184.66;;;1.95;100.00
29045;BME280;16133;49.486;12.176;2023-02-22T03:36:49;97184.09;;;1.91;100.00
29045;BME280;16133;49.486;12.176;2023-02-22T03:39:20;97186.28;;;1.86;100.00
29045;BME280;16133;49.486;12.176;2023-02-22T03:41:52;97195.34;;;1.82;100.00
29045;BME280;16133;49.486;12.176;2023-02-22T03:44:22;97188.59;;;1.79;100.00
29045;BME280;16133;49.486;12.176;2023-02-22T03:46:51;97185.25;;;1.77;100.00
29045;BME280;16133;49.486;12.176;2023-02-22T03:49:31;97192.03;;;1.80;100.00
29045;BME280;16133;49.486;12.176;2023-02-22T03:51:58;97193.66;;;1.81;100.00
29045;BME280;16133;49.486;12.176;2023-02-22T03:54:23;97195.06;;;1.85;100.00
29045;BME280;16133;49.486;12.176;2023-02-22T03:56:56;97181.72;;;1.88;100.00
29045;BME280;16133;49.486;12.176;2023-02-22T03:59:24;97183.00;;;1.93;100.00
29045;BME280;16133;49.486;12.176;2023-02-22T04:01:52;97178.19;;;1.99;100.00
29045;BME280;16133;49.486;12.176;2023-02-22T04:04:18;97176.97;;;2.03;100.00
29045;BME280;16133;49.486;12.176;2023-02-22T04:06:44;97180.16;;;2.06;100.00
29045;BME280;16133;49.486;12.176;2023-02-22T04:09:09;97171.75;;;2.12;100.00
29045;BME280;16133;49.486;12.176;2023-02-22T04:11:35;97167.91;;;2.16;100.00
29045;BME280;16133;49.486;12.176;2023-02-22T04:14:00;97161.34;;;2.22;100.00
29045;BME280;16133;49.486;12.176;2023-02-22T04:16:26;97151.44;;;2.25;100.00
29045;BME280;16133;49.486;12.176;2023-02-22T04:18:51;97143.84;;;2.32;100.00
29045;BME280;16133;49.486;12.176;2023-02-22T04:21:17;97143.56;;;2.35;100.00
29045;BME280;16133;49.486;12.176;2023-02-22T04:23:42;97137.94;;;2.39;100.00
29045;BME280;16133;49.486;12.176;2023-02-22T04:26:07;97135.88;;;2.43;100.00
29045;BME280;16133;49.486;12.176;2023-02-22T04:28:33;97132.03;;;2.47;100.00
29045;BME280;16133;49.486;12.176;2023-02-22T04:30:58;97128.28;;;2.50;100.00
29045;BME280;16133;49.486;12.176;2023-02-22T04:33:24;97129.00;;;2.52;100.00
29045;BME280;16133;49.486;12.176;2023-02-22T04:35:49;97121.69;;;2.55;100.00
29045;BME280;16133;49.486;12.176;2023-02-22T04:38:16;97116.34;;;2.57;100.00
29045;BME280;16133;49.486;12.176;2023-02-22T04:40:41;97100.31;;;2.50;100.00
29045;BME280;16133;49.486;12.176;2023-02-22T04:43:07;97107.38;;;2.59;100.00
29045;BME280;16133;49.486;12.176;2023-02-22T04:45:32;97114.81;;;2.64;100.00
29045;BME280;16133;49.486;12.176;2023-02-22T04:47:58;97105.72;;;2.68;100.00
29045;BME280;16133;49.486;12.176;2023-02-22T04:50:23;97109.00;;;2.70;100.00
29045;BME280;16133;49.486;12.176;2023-02-22T04:52:48;97102.94;;;2.69;100.00
29045;BME280;16133;49.486;12.176;2023-02-22T04:55:14;97109.00;;;2.70;100.00
29045;BME280;16133;49.486;12.176;2023-02-22T04:57:40;97111.63;;;2.70;100.00
29045;BME280;16133;49.486;12.176;2023-02-22T05:00:07;97107.34;;;2.69;100.00
29045;BME280;16133;49.486;12.176;2023-02-22T05:02:34;97109.28;;;2.67;100.00
29045;BME280;16133;49.486;12.176;2023-02-22T05:05:03;97107.63;;;2.66;100.00
29045;BME280;16133;49.486;12.176;2023-02-22T05:07:28;97118.09;;;2.66;100.00
29045;BME280;16133;49.486;12.176;2023-02-22T05:09:53;97113.16;;;2.63;100.00
29045;BME280;16133;49.486;12.176;2023-02-22T05:12:19;97118.38;;;2.63;100.00
29045;BME280;16133;49.486;12.176;2023-02-22T05:14:45;97122.91;;;2.61;100.00
29045;BME280;16133;49.486;12.176;2023-02-22T05:17:11;97120.31;;;2.61;100.00
29045;BME280;16133;49.486;12.176;2023-02-22T05:19:36;97123.06;;;2.59;100.00
29045;BME280;16133;49.486;12.176;2023-02-22T05:22:02;97120.59;;;2.58;100.00
29045;BME280;16133;49.486;12.176;2023-02-22T05:24:27;97125.16;;;2.56;100.00
29045;BME280;16133;49.486;12.176;2023-02-22T05:26:53;97123.59;;;2.53;100.00
29045;BME280;16133;49.486;12.176;2023-02-22T05:29:18;97130.78;;;2.51;100.00
29045;BME280;16133;49.486;12.176;2023-02-22T05:31:44;97131.75;;;2.50;100.00
29045;BME280;16133;49.486;12.176;2023-02-22T05:34:10;97136.16;;;2.50;100.00
29045;BME280;16133;49.486;12.176;2023-02-22T05:36:35;97129.41;;;2.47;100.00
29045;BME280;16133;49.486;12.176;2023-02-22T05:39:00;97136.44;;;2.47;100.00
29045;BME280;16133;49.486;12.176;2023-02-22T05:41:27;97138.09;;;2.48;100.00
29045;BME280;16133;49.486;12.176;2023-02-22T05:43:52;97133.53;;;2.50;100.00
29045;BME280;16133;49.486;12.176;2023-02-22T05:46:17;97129.13;;;2.50;100.00
29045;BME280;16133;49.486;12.176;2023-02-22T05:48:43;97127.34;;;2.51;100.00
29045;BME280;16133;49.486;12.176;2023-02-22T05:51:08;97126.66;;;2.49;100.00
29045;BME280;16133;49.486;12.176;2023-02-22T05:53:35;97132.56;;;2.51;100.00
29045;BME280;16133;49.486;12.176;2023-02-22T05:56:02;97133.28;;;2.53;100.00
29045;BME280;16133;49.486;12.176;2023-02-22T05:58:28;97132.56;;;2.51;100.00
29045;BME280;16133;49.486;12.176;2023-02-22T06:00:53;97124.72;;;2.51;100.00
29045;BME280;16133;49.486;12.176;2023-02-22T06:03:18;97126.38;;;2.52;100.00
29045;BME280;16133;49.486;12.176;2023-02-22T06:05:44;97124.72;;;2.51;100.00
29045;BME280;16133;49.486;12.176;2023-02-22T06:08:09;97112.03;;;2.46;100.00
29045;BME280;16133;49.486;12.176;2023-02-22T06:10:35;97129.00;;;2.52;100.00
29045;BME280;16133;49.486;12.176;2023-02-22T06:13:03;97129.56;;;2.55;100.00
29045;BME280;16133;49.486;12.176;2023-02-22T06:15:29;97120.75;;;2.56;100.00
29045;BME280;16133;49.486;12.176;2023-02-22T06:17:55;97127.47;;;2.59;100.00
29045;BME280;16133;49.486;12.176;2023-02-22T06:20:23;97124.59;;;2.62;100.00
29045;BME280;16133;49.486;12.176;2023-02-22T06:22:50;97123.34;;;2.66;100.00
29045;BME280;16133;49.486;12.176;2023-02-22T06:25:20;97119.50;;;2.70;100.00
29045;BME280;16133;49.486;12.176;2023-02-22T06:27:46;97118.25;;;2.74;100.00
29045;BME280;16133;49.486;12.176;2023-02-22T06:30:13;97121.97;;;2.81;100.00
29045;BME280;16133;49.486;12.176;2023-02-22T06:32:39;97117.00;;;2.87;100.00
29045;BME280;16133;49.486;12.176;2023-02-22T06:35:04;97117.28;;;2.94;100.00
29045;BME280;16133;49.486;12.176;2023-02-22T06:37:30;97113.97;;;3.02;100.00
29045;BME280;16133;49.486;12.176;2023-02-22T06:39:55;97124.69;;;3.08;100.00
29045;BME280;16133;49.486;12.176;2023-02-22T06:42:20;97109.09;;;3.16;100.00
29045;BME280;16133;49.486;12.176;2023-02-22T06:44:46;97105.91;;;3.22;100.00
29045;BME280;16133;49.486;12.176;2023-02-22T06:47:11;97097.34;;;3.30;100.00
29045;BME280;16133;49.486;12.176;2023-02-22T06:49:37;97102.84;;;3.36;100.00
29045;BME280;16133;49.486;12.176;2023-02-22T06:52:06;97109.47;;;3.41;100.00
29045;BME280;16133;49.486;12.176;2023-02-22T06:54:32;97109.19;;;3.34;100.00
29045;BME280;16133;49.486;12.176;2023-02-22T06:56:57;97120.38;;;3.36;100.00
29045;BME280;16133;49.486;12.176;2023-02-22T06:59:23;97107.81;;;3.40;100.00
29045;BME280;16133;49.486;12.176;2023-02-22T07:01:48;97120.31;;;3.55;100.00
29045;BME280;16133;49.486;12.176;2023-02-22T07:04:14;97124.03;;;3.62;100.00
29045;BME280;16133;49.486;12.176;2023-02-22T07:06:47;97123.31;;;3.70;100.00
29045;BME280;16133;49.486;12.176;2023-02-22T07:09:13;97128.97;;;3.75;100.00
29045;BME280;16133;49.486;12.176;2023-02-22T07:11:39;97125.88;;;3.79;100.00
29045;BME280;16133;49.486;12.176;2023-02-22T07:14:05;97123.53;;;3.86;100.00
29045;BME280;16133;49.486;12.176;2023-02-22T07:16:30;97131.63;;;3.93;100.00
29045;BME280;16133;49.486;12.176;2023-02-22T07:18:56;97134.66;;;3.98;100.00
29045;BME280;16133;49.486;12.176;2023-02-22T07:21:21;97137.53;;;4.04;100.00
29045;BME280;16133;49.486;12.176;2023-02-22T07:23:53;97145.41;;;4.04;100.00
29045;BME280;16133;49.486;12.176;2023-02-22T07:26:20;97152.00;;;4.08;100.00
29045;BME280;16133;49.486;12.176;2023-02-22T07:28:45;97158.03;;;4.18;100.00
29045;BME280;16133;49.486;12.176;2023-02-22T07:31:11;97166.84;;;4.27;100.00
29045;BME280;16133;49.486;12.176;2023-02-22T07:33:36;97166.28;;;4.33;100.00
29045;BME280;16133;49.486;12.176;2023-02-22T07:36:01;97186.16;;;4.36;100.00
29045;BME280;16133;49.486;12.176;2023-02-22T07:38:27;97184.06;;;4.39;100.00
29045;BME280;16133;49.486;12.176;2023-02-22T07:40:53;97188.59;;;4.37;100.00
29045;BME280;16133;49.486;12.176;2023-02-22T07:43:25;97197.72;;;4.43;100.00
29045;BME280;16133;49.486;12.176;2023-02-22T07:45:53;97197.81;;;4.51;100.00
29045;BME280;16133;49.486;12.176;2023-02-22T07:48:20;97195.94;;;4.61;100.00
29045;BME280;16133;49.486;12.176;2023-02-22T07:50:46;97206.16;;;4.64;100.00
29045;BME280;16133;49.486;12.176;2023-02-22T07:53:18;97226.91;;;4.67;100.00
29045;BME280;16133;49.486;12.176;2023-02-22T07:55:44;97231.56;;;4.73;100.00
29045;BME280;16133;49.486;12.176;2023-02-22T07:58:12;97231.34;;;4.84;100.00
29045;BME280;16133;49.486;12.176;2023-02-22T08:00:39;97240.81;;;4.95;100.00
29045;BME280;16133;49.486;12.176;2023-02-22T08:03:10;97244.59;;;5.10;100.00
29045;BME280;16133;49.486;12.176;2023-02-22T08:05:38;97249.94;;;5.18;100.00
29045;BME280;16133;49.486;12.176;2023-02-22T08:08:04;97253.16;;;5.29;100.00
29045;BME280;16133;49.486;12.176;2023-02-22T08:10:31;97257.41;;;5.40;100.00
29045;BME280;16133;49.486;12.176;2023-02-22T08:12:57;97266.47;;;5.46;100.00
29045;BME280;16133;49.486;12.176;2023-02-22T08:15:25;97270.16;;;5.53;100.00
29045;BME280;16133;49.486;12.176;2023-02-22T08:17:52;97278.94;;;5.61;100.00
29045;BME280;16133;49.486;12.176;2023-02-22T08:20:18;97279.84;;;5.70;100.00
29045;BME280;16133;49.486;12.176;2023-02-22T08:22:44;97276.91;;;5.73;100.00
29045;BME280;16133;49.486;12.176;2023-02-22T08:25:10;97282.53;;;5.78;100.00
29045;BME280;16133;49.486;12.176;2023-02-22T08:27:35;97281.53;;;5.79;100.00
29045;BME280;16133;49.486;12.176;2023-02-22T08:30:01;97284.88;;;5.81;100.00
29045;BME280;16133;49.486;12.176;2023-02-22T08:32:26;97282.69;;;5.76;100.00
29045;BME280;16133;49.486;12.176;2023-02-22T08:34:52;97289.75;;;5.76;100.00
29045;BME280;16133;49.486;12.176;2023-02-22T08:37:17;97285.47;;;5.75;100.00
29045;BME280;16133;49.486;12.176;2023-02-22T08:39:43;97284.34;;;5.77;100.00
29045;BME280;16133;49.486;12.176;2023-02-22T08:42:09;97286.66;;;5.81;100.00
29045;BME280;16133;49.486;12.176;2023-02-22T08:44:36;97281.78;;;5.86;100.00
29045;BME280;16133;49.486;12.176;2023-02-22T08:47:02;97282.66;;;5.94;100.00
29045;BME280;16133;49.486;12.176;2023-02-22T08:49:27;97283.75;;;6.01;100.00
29045;BME280;16133;49.486;12.176;2023-02-22T08:51:52;97287.41;;;6.08;100.00
29045;BME280;16133;49.486;12.176;2023-02-22T08:54:18;97280.53;;;6.15;100.00
29045;BME280;16133;49.486;12.176;2023-02-22T08:56:43;97288.13;;;6.18;100.00
29045;BME280;16133;49.486;12.176;2023-02-22T08:59:09;97283.22;;;6.23;100.00
29045;BME280;16133;49.486;12.176;2023-02-22T09:01:34;97276.47;;;6.29;100.00
29045;BME280;16133;49.486;12.176;2023-02-22T09:04:00;97276.22;;;6.40;100.00
29045;BME280;16133;49.486;12.176;2023-02-22T09:06:26;97275.13;;;6.51;100.00
29045;BME280;16133;49.486;12.176;2023-02-22T09:08:52;97278.78;;;6.58;100.00
29045;BME280;16133;49.486;12.176;2023-02-22T09:11:17;97275.19;;;6.67;100.00
29045;BME280;16133;49.486;12.176;2023-02-22T09:13:43;97273.25;;;6.77;100.00
29045;BME280;16133;49.486;12.176;2023-02-22T09:16:08;97260.75;;;6.87;100.00
29045;BME280;16133;49.486;12.176;2023-02-22T09:18:34;97265.91;;;6.97;100.00
29045;BME280;16133;49.486;12.176;2023-02-22T09:20:59;97263.81;;;7.08;100.00
29045;BME280;16133;49.486;12.176;2023-02-22T09:23:24;97258.38;;;7.18;100.00
29045;BME280;16133;49.486;12.176;2023-02-22T09:25:51;97260.19;;;7.26;100.00
29045;BME280;16133;49.486;12.176;2023-02-22T09:28:17;97257.56;;;7.34;100.00
29045;BME280;16133;49.486;12.176;2023-02-22T09:30:42;97258.09;;;7.45;100.00
29045;BME280;16133;49.486;12.176;2023-02-22T09:33:12;97258.44;;;7.58;100.00
29045;BME280;16133;49.486;12.176;2023-02-22T09:35:39;97264.22;;;7.70;100.00
29045;BME280;16133;49.486;12.176;2023-02-22T09:38:12;97253.47;;;7.80;100.00
29045;BME280;16133;49.486;12.176;2023-02-22T09:51:27;97244.91;;;8.57;100.00
29045;BME280;16133;49.486;12.176;2023-02-22T09:53:56;97245.50;;;8.75;100.00
29045;BME280;16133;49.486;12.176;2023-02-22T09:56:25;97247.91;;;8.93;100.00
29045;BME280;16133;49.486;12.176;2023-02-22T09:58:59;97243.34;;;9.09;100.00
29045;BME280;16133;49.486;12.176;2023-02-22T10:01:41;97245.44;;;9.22;100.00
29045;BME280;16133;49.486;12.176;2023-02-22T10:04:18;97236.56;;;9.38;100.00
29045;BME280;16133;49.486;12.176;2023-02-22T10:09:38;97237.00;;;9.64;100.00
29045;BME280;16133;49.486;12.176;2023-02-22T10:12:28;97228.66;;;9.75;100.00
29045;BME280;16133;49.486;12.176;2023-02-22T10:28:47;97217.00;;;10.14;100.00
29045;BME280;16133;49.486;12.176;2023-02-22T10:31:30;97215.97;;;10.23;100.00
29045;BME280;16133;49.486;12.176;2023-02-22T10:34:01;97206.66;;;10.27;100.00
29045;BME280;16133;49.486;12.176;2023-02-22T10:36:27;97212.88;;;10.34;100.00
29045;BME280;16133;49.486;12.176;2023-02-22T10:39:11;97206.44;;;10.43;100.00
29045;BME280;16133;49.486;12.176;2023-02-22T10:41:44;97210.28;;;10.55;100.00
29045;BME280;16133;49.486;12.176;2023-02-22T10:44:13;97213.50;;;10.65;100.00
29045;BME280;16133;49.486;12.176;2023-02-22T10:46:40;97208.88;;;10.74;100.00
29045;BME280;16133;49.486;12.176;2023-02-22T10:49:06;97209.06;;;10.87;100.00
29045;BME280;16133;49.486;12.176;2023-02-22T10:51:32;97211.22;;;10.98;100.00
29045;BME280;16133;49.486;12.176;2023-02-22T10:54:20;97207.69;;;11.12;100.00
29045;BME280;16133;49.486;12.176;2023-02-22T10:56:50;97202.09;;;11.22;100.00
29045;BME280;16133;49.486;12.176;2023-02-22T10:59:37;97211.97;;;11.28;100.00
29045;BME280;16133;49.486;12.176;2023-02-22T11:02:17;97209.19;;;11.36;100.00
29045;BME280;16133;49.486;12.176;2023-02-22T11:04:55;97206.59;;;11.42;100.00
29045;BME280;16133;49.486;12.176;2023-02-22T11:07:28;97202.53;;;11.46;100.00
29045;BME280;16133;49.486;12.176;2023-02-22T11:09:59;97200.53;;;11.48;100.00
29045;BME280;16133;49.486;12.176;2023-02-22T11:12:32;97194.00;;;11.51;100.00
29045;BME280;16133;49.486;12.176;2023-02-22T11:17:45;97194.66;;;11.53;100.00
29045;BME280;16133;49.486;12.176;2023-02-22T11:22:58;97185.22;;;11.50;99.95
29045;BME280;16133;49.486;12.176;2023-02-22T11:25:28;97182.56;;;11.50;100.00
29045;BME280;16133;49.486;12.176;2023-02-22T11:28:06;97176.63;;;11.48;99.96
29045;BME280;16133;49.486;12.176;2023-02-22T11:30:33;97165.72;;;11.43;100.00
29045;BME280;16133;49.486;12.176;2023-02-22T11:36:01;97163.41;;;11.34;99.20
29045;BME280;16133;49.486;12.176;2023-02-22T11:38:32;97158.00;;;11.27;99.91
29045;BME280;16133;49.486;12.176;2023-02-22T11:41:14;97154.91;;;11.24;99.72
29045;BME280;16133;49.486;12.176;2023-02-22T11:43:42;97151.38;;;11.17;100.00
29045;BME280;16133;49.486;12.176;2023-02-22T11:46:11;97148.09;;;11.15;100.00
29045;BME280;16133;49.486;12.176;2023-02-22T11:48:40;97144.63;;;11.14;100.00
29045;BME280;16133;49.486;12.176;2023-02-22T11:56:48;97136.97;;;11.26;100.00
29045;BME280;16133;49.486;12.176;2023-02-22T12:02:25;97128.63;;;11.29;99.89
29045;BME280;16133;49.486;12.176;2023-02-22T12:08:07;97132.03;;;11.44;99.31
29045;BME280;16133;49.486;12.176;2023-02-22T12:11:12;97132.06;;;11.50;97.83
29045;BME280;16133;49.486;12.176;2023-02-22T12:16:23;97131.53;;;11.62;97.85
29045;BME280;16133;49.486;12.176;2023-02-22T12:21:57;97126.19;;;11.76;96.63
29045;BME280;16133;49.486;12.176;2023-02-22T12:24:30;97126.22;;;11.83;96.05
29045;BME280;16133;49.486;12.176;2023-02-22T12:27:11;97117.06;;;11.92;96.33
29045;BME280;16133;49.486;12.176;2023-02-22T12:29:47;97114.66;;;11.97;95.57
29045;BME280;16133;49.486;12.176;2023-02-22T12:32:39;97112.03;;;12.04;94.66
29045;BME280;16133;49.486;12.176;2023-02-22T12:35:15;97105.94;;;12.10;94.81
29045;BME280;16133;49.486;12.176;2023-02-22T12:38:00;97103.31;;;12.16;94.41
29045;BME280;16133;49.486;12.176;2023-02-22T12:43:21;97101.97;;;12.33;93.14
29045;BME280;16133;49.486;12.176;2023-02-22T12:53:45;97089.19;;;12.63;90.25
29045;BME280;16133;49.486;12.176;2023-02-22T12:56:29;97090.59;;;12.66;89.65
29045;BME280;16133;49.486;12.176;2023-02-22T13:01:31;97094.34;;;12.78;88.55
29045;BME280;16133;49.486;12.176;2023-02-22T13:03:58;97079.41;;;12.83;88.07
29045;BME280;16133;49.486;12.176;2023-02-22T13:06:29;97077.56;;;12.90;87.53
29045;BME280;16133;49.486;12.176;2023-02-22T13:11:48;97074.31;;;13.02;87.49
29045;BME280;16133;49.486;12.176;2023-02-22T13:14:39;97075.81;;;13.11;87.29
29045;BME280;16133;49.486;12.176;2023-02-22T13:17:28;97074.34;;;13.15;86.53
29045;BME280;16133;49.486;12.176;2023-02-22T13:20:22;97066.16;;;13.16;86.80
29045;BME280;16133;49.486;12.176;2023-02-22T13:22:58;97069.22;;;13.20;85.84
29045;BME280;16133;49.486;12.176;2023-02-22T13:25:34;97061.66;;;13.17;84.58
29045;BME280;16133;49.486;12.176;2023-02-22T13:50:28;97045.66;;;13.43;83.15
29045;BME280;16133;49.486;12.176;2023-02-22T13:52:59;97052.63;;;13.44;82.86
29045;BME280;16133;49.486;12.176;2023-02-22T13:55:31;97046.28;;;13.45;82.38
29045;BME280;16133;49.486;12.176;2023-02-22T13:58:02;97045.25;;;13.46;82.19
29045;BME280;16133;49.486;12.176;2023-02-22T14:11:05;97030.72;;;13.29;82.68
29045;BME280;16133;49.486;12.176;2023-02-22T14:18:59;97034.59;;;13.26;82.26
29045;BME280;16133;49.486;12.176;2023-02-22T14:21:25;97028.88;;;13.29;82.27
29045;BME280;16133;49.486;12.176;2023-02-22T14:23:54;97028.88;;;13.36;81.64
29045;BME280;16133;49.486;12.176;2023-02-22T14:34:09;97018.81;;;13.25;78.53
29045;BME280;16133;49.486;12.176;2023-02-22T14:40:03;97015.75;;;13.21;79.87
29045;BME280;16133;49.486;12.176;2023-02-22T14:42:41;97015.31;;;13.11;80.58
29045;BME280;16133;49.486;12.176;2023-02-22T14:47:54;97013.84;;;12.95;81.65
29045;BME280;16133;49.486;12.176;2023-02-22T14:50:45;97006.50;;;12.91;81.96
29045;BME280;16133;49.486;12.176;2023-02-22T14:53:21;97008.75;;;12.87;81.61
29045;BME280;16133;49.486;12.176;2023-02-22T14:55:57;97008.72;;;12.81;82.10
29045;BME280;16133;49.486;12.176;2023-02-22T14:58:37;97006.25;;;12.73;82.86
29045;BME280;16133;49.486;12.176;2023-02-22T15:04:25;97012.00;;;12.63;83.32
29045;BME280;16133;49.486;12.176;2023-02-22T15:06:51;97015.06;;;12.60;83.29
29045;BME280;16133;49.486;12.176;2023-02-22T15:09:21;97008.28;;;12.58;83.55
29045;BME280;16133;49.486;12.176;2023-02-22T15:12:10;97002.97;;;12.58;84.09
29045;BME280;16133;49.486;12.176;2023-02-22T15:14:38;97007.06;;;12.60;83.86
29045;BME280;16133;49.486;12.176;2023-02-22T15:17:17;96999.50;;;12.64;83.20
29045;BME280;16133;49.486;12.176;2023-02-22T15:19:45;97001.34;;;12.57;83.57
29045;BME280;16133;49.486;12.176;2023-02-22T15:22:24;97001.34;;;12.57;83.08
29045;BME280;16133;49.486;12.176;2023-02-22T15:24:59;96992.31;;;12.51;83.35
29045;BME280;16133;49.486;12.176;2023-02-22T15:27:25;96994.38;;;12.49;84.11
29045;BME280;16133;49.486;12.176;2023-02-22T15:29:58;96993.31;;;12.50;84.24
29045;BME280;16133;49.486;12.176;2023-02-22T15:32:33;96995.16;;;12.50;84.38
29045;BME280;16133;49.486;12.176;2023-02-22T15:35:29;96995.16;;;12.50;84.96
29045;BME280;16133;49.486;12.176;2023-02-22T15:40:36;96994.31;;;12.42;84.08
29045;BME280;16133;49.486;12.176;2023-02-22T15:43:20;96989.19;;;12.34;84.62